sensor_id;sensor_type;location;lat;lon;timestamp;pressure;altitude;pressure_sealevel;temperature;humidity
42587;BME280;28216;53.362;-6.288;2023-02-26T00:00:56;102469.91;;;6.74;78.18
42587;BME280;28216;53.362;-6.288;2023-02-26T00:03:21;102470.56;;;6.78;76.99
42587;BME280;28216;53.362;-6.288;2023-02-26T00:05:46;102471.31;;;6.80;75.37
42587;BME280;28216;53.362;-6.288;2023-02-26T00:08:12;102462.56;;;6.81;73.94
42587;BME280;28216;53.362;-6.288;2023-02-26T00:10:37;102471.75;;;6.86;72.86
42587;BME280;28216;53.362;-6.288;2023-02-26T00:13:03;102467.56;;;6.84;72.21
42587;BME280;28216;53.362;-6.288;2023-02-26T00:15:29;102469.91;;;6.88;71.63
42587;BME280;28216;53.362;-6.288;2023-02-26T00:18:01;102469.25;;;6.85;71.83
42587;BME280;28216;53.362;-6.288;2023-02-26T00:20:28;102474.47;;;6.85;71.98
42587;BME280;28216;53.362;-6.288;2023-02-26T00:22:54;102470.84;;;6.87;71.58
42587;BME280;28216;53.362;-6.288;2023-02-26T00:25:19;102479.50;;;6.88;71.27
42587;BME280;28216;53.362;-6.288;2023-02-26T00:27:45;102484.72;;;6.88;71.22
42587;BME280;28216;53.362;-6.288;2023-02-26T00:30:12;102474.28;;;6.88;71.19
42587;BME280;28216;53.362;-6.288;2023-02-26T00:32:38;102470.75;;;6.89;71.02
42587;BME280;28216;53.362;-6.288;2023-02-26T00:35:06;102484.34;;;6.94;70.46
42587;BME280;28216;53.362;-6.288;2023-02-26T00:42:54;102488.06;;;6.90;69.61
42587;BME280;28216;53.362;-6.288;2023-02-26T00:45:20;102486.28;;;6.90;69.99
42587;BME280;28216;53.362;-6.288;2023-02-26T00:48:15;102487.88;;;6.93;70.35
42587;BME280;28216;53.362;-6.288;2023-02-26T00:51:15;102487.22;;;6.89;70.91
42587;BME280;28216;53.362;-6.288;2023-02-26T00:53:46;102486.47;;;6.87;71.02
42587;BME280;28216;53.362;-6.288;2023-02-26T00:56:14;102485.63;;;6.87;71.97
42587;BME280;28216;53.362;-6.288;2023-02-26T00:58:39;102493.75;;;6.82;72.60
42587;BME280;28216;53.362;-6.288;2023-02-26T01:01:05;102491.22;;;6.81;73.77
42587;BME280;28216;53.362;-6.288;2023-02-26T01:03:31;102493.94;;;6.79;75.33
42587;BME280;28216;53.362;-6.288;2023-02-26T01:05:57;102490.66;;;6.76;75.51
42587;BME280;28216;53.362;-6.288;2023-02-26T01:08:58;102484.53;;;6.77;76.49
42587;BME280;28216;53.362;-6.288;2023-02-26T01:11:25;102495.78;;;6.77;76.92
42587;BME280;28216;53.362;-6.288;2023-02-26T01:13:50;102498.47;;;6.76;77.28
42587;BME280;28216;53.362;-6.288;2023-02-26T01:16:21;102493.63;;;6.69;77.62
42587;BME280;28216;53.362;-6.288;2023-02-26T01:18:56;102498.91;;;6.68;77.92
42587;BME280;28216;53.362;-6.288;2023-02-26T01:21:30;102502.34;;;6.68;78.03
42587;BME280;28216;53.362;-6.288;2023-02-26T01:23:58;102504.22;;;6.66;78.08
42587;BME280;28216;53.362;-6.288;2023-02-26T01:26:27;102507.94;;;6.62;78.57
42587;BME280;28216;53.362;-6.288;2023-02-26T01:28:54;102493.59;;;6.55;78.62
42587;BME280;28216;53.362;-6.288;2023-02-26T01:34:31;102492.28;;;6.48;79.00
42587;BME280;28216;53.362;-6.288;2023-02-26T01:42:53;102506.38;;;6.30;79.21
42587;BME280;28216;53.362;-6.288;2023-02-26T01:46:11;102508.41;;;6.25;79.75
42587;BME280;28216;53.362;-6.288;2023-02-26T01:51:08;102511.81;;;6.11;80.05
42587;BME280;28216;53.362;-6.288;2023-02-26T01:53:33;102506.94;;;6.05;80.21
42587;BME280;28216;53.362;-6.288;2023-02-26T01:56:02;102507.13;;;6.02;80.37
42587;BME280;28216;53.362;-6.288;2023-02-26T01:58:32;102508.06;;;6.01;79.93
42587;BME280;28216;53.362;-6.288;2023-02-26T02:00:58;102510.91;;;5.96;79.82
42587;BME280;28216;53.362;-6.288;2023-02-26T02:03:25;102506.69;;;5.94;80.04
42587;BME280;28216;53.362;-6.288;2023-02-26T02:06:09;102512.06;;;5.91;80.42
42587;BME280;28216;53.362;-6.288;2023-02-26T02:08:39;102505.31;;;5.87;80.03
42587;BME280;28216;53.362;-6.288;2023-02-26T02:11:08;102510.53;;;5.87;79.62
42587;BME280;28216;53.362;-6.288;2023-02-26T02:25:19;102523.72;;;6.15;76.23
42587;BME280;28216;53.362;-6.288;2023-02-26T02:34:18;102518.84;;;6.25;75.46
42587;BME280;28216;53.362;-6.288;2023-02-26T02:36:52;102523.69;;;6.31;75.06
42587;BME280;28216;53.362;-6.288;2023-02-26T02:39:45;102525.53;;;6.29;74.65
42587;BME280;28216;53.362;-6.288;2023-02-26T02:43:03;102521.66;;;6.36;73.93
42587;BME280;28216;53.362;-6.288;2023-02-26T02:48:22;102527.34;;;6.43;73.69
42587;BME280;28216;53.362;-6.288;2023-02-26T02:51:06;102530.78;;;6.43;73.69
42587;BME280;28216;53.362;-6.288;2023-02-26T02:53:48;102534.06;;;6.47;73.18
42587;BME280;28216;53.362;-6.288;2023-02-26T02:56:22;102536.47;;;6.50;73.25
42587;BME280;28216;53.362;-6.288;2023-02-26T02:58:59;102537.31;;;6.50;73.42
42587;BME280;28216;53.362;-6.288;2023-02-26T03:01:26;102548.50;;;6.52;73.05
42587;BME280;28216;53.362;-6.288;2023-02-26T03:04:00;102540.84;;;6.49;73.34
42587;BME280;28216;53.362;-6.288;2023-02-26T03:06:27;102541.78;;;6.48;73.18
42587;BME280;28216;53.362;-6.288;2023-02-26T03:08:52;102544.38;;;6.48;73.32
42587;BME280;28216;53.362;-6.288;2023-02-26T03:11:18;102541.03;;;6.46;72.73
42587;BME280;28216;53.362;-6.288;2023-02-26T03:13:45;102547.25;;;6.44;71.66
42587;BME280;28216;53.362;-6.288;2023-02-26T03:21:41;102547.97;;;6.31;71.52
42587;BME280;28216;53.362;-6.288;2023-02-26T03:24:33;102538.75;;;6.26;71.11
42587;BME280;28216;53.362;-6.288;2023-02-26T03:27:13;102548.50;;;6.22;71.20
42587;BME280;28216;53.362;-6.288;2023-02-26T03:29:50;102548.41;;;6.24;70.87
42587;BME280;28216;53.362;-6.288;2023-02-26T03:35:18;102548.50;;;6.22;70.04
42587;BME280;28216;53.362;-6.288;2023-02-26T03:37:49;102560.59;;;6.23;69.69
42587;BME280;28216;53.362;-6.288;2023-02-26T03:40:29;102556.47;;;6.19;69.57
42587;BME280;28216;53.362;-6.288;2023-02-26T03:43:00;102553.72;;;6.22;69.09
42587;BME280;28216;53.362;-6.288;2023-02-26T03:45:33;102558.81;;;6.24;68.91
42587;BME280;28216;53.362;-6.288;2023-02-26T03:48:00;102565.53;;;6.28;69.04
42587;BME280;28216;53.362;-6.288;2023-02-26T03:50:32;102554.94;;;6.31;69.20
42587;BME280;28216;53.362;-6.288;2023-02-26T03:53:02;102557.28;;;6.35;68.98
42587;BME280;28216;53.362;-6.288;2023-02-26T03:55:35;102564.84;;;6.40;69.25
42587;BME280;28216;53.362;-6.288;2023-02-26T03:58:03;102569.22;;;6.40;68.95
42587;BME280;28216;53.362;-6.288;2023-02-26T04:00:30;102558.69;;;6.41;69.09
42587;BME280;28216;53.362;-6.288;2023-02-26T04:03:09;102557.69;;;6.44;69.16
42587;BME280;28216;53.362;-6.288;2023-02-26T04:05:41;102549.78;;;6.45;69.24
42587;BME280;28216;53.362;-6.288;2023-02-26T04:08:07;102557.50;;;6.47;69.27
42587;BME280;28216;53.362;-6.288;2023-02-26T04:10:39;102565.16;;;6.50;69.19
42587;BME280;28216;53.362;-6.288;2023-02-26T04:13:06;102566.91;;;6.49;69.13
42587;BME280;28216;53.362;-6.288;2023-02-26T04:15:32;102576.41;;;6.50;69.27
42587;BME280;28216;53.362;-6.288;2023-02-26T04:17:57;102577.25;;;6.51;69.27
42587;BME280;28216;53.362;-6.288;2023-02-26T04:20:23;102582.38;;;6.52;69.40
42587;BME280;28216;53.362;-6.288;2023-02-26T04:22:48;102578.75;;;6.55;69.43
42587;BME280;28216;53.362;-6.288;2023-02-26T04:25:14;102591.69;;;6.56;69.37
42587;BME280;28216;53.362;-6.288;2023-02-26T04:27:40;102581.19;;;6.58;69.65
42587;BME280;28216;53.362;-6.288;2023-02-26T04:30:06;102587.31;;;6.57;69.60
42587;BME280;28216;53.362;-6.288;2023-02-26T04:32:32;102602.03;;;6.58;69.36
42587;BME280;28216;53.362;-6.288;2023-02-26T04:34:57;102600.44;;;6.55;68.77
42587;BME280;28216;53.362;-6.288;2023-02-26T04:37:23;102592.88;;;6.51;68.45
42587;BME280;28216;53.362;-6.288;2023-02-26T04:39:48;102599.78;;;6.52;68.15
42587;BME280;28216;53.362;-6.288;2023-02-26T04:42:13;102596.41;;;6.50;68.22
42587;BME280;28216;53.362;-6.288;2023-02-26T04:44:39;102592.03;;;6.50;68.08
42587;BME280;28216;53.362;-6.288;2023-02-26T04:47:04;102599.09;;;6.48;67.80
42587;BME280;28216;53.362;-6.288;2023-02-26T04:49:30;102595.50;;;6.51;67.76
42587;BME280;28216;53.362;-6.288;2023-02-26T04:51:55;102591.28;;;6.48;67.65
42587;BME280;28216;53.362;-6.288;2023-02-26T04:54:21;102607.69;;;6.50;67.62
42587;BME280;28216;53.362;-6.288;2023-02-26T04:56:46;102604.16;;;6.51;67.97
42587;BME280;28216;53.362;-6.288;2023-02-26T04:59:12;102606.00;;;6.49;67.98
42587;BME280;28216;53.362;-6.288;2023-02-26T05:01:37;102603.00;;;6.41;68.34
42587;BME280;28216;53.362;-6.288;2023-02-26T05:04:03;102606.00;;;6.49;68.17
42587;BME280;28216;53.362;-6.288;2023-02-26T05:06:28;102603.41;;;6.49;68.55
42587;BME280;28216;53.362;-6.288;2023-02-26T05:08:54;102603.41;;;6.49;68.73
42587;BME280;28216;53.362;-6.288;2023-02-26T05:11:19;102616.44;;;6.49;68.87
42587;BME280;28216;53.362;-6.288;2023-02-26T05:13:45;102614.75;;;6.48;68.60
42587;BME280;28216;53.362;-6.288;2023-02-26T05:16:10;102620.72;;;6.50;68.66
42587;BME280;28216;53.362;-6.288;2023-02-26T05:18:36;102621.63;;;6.49;68.85
42587;BME280;28216;53.362;-6.288;2023-02-26T05:21:02;102618.94;;;6.51;69.04
42587;BME280;28216;53.362;-6.288;2023-02-26T05:23:28;102629.38;;;6.51;69.08
42587;BME280;28216;53.362;-6.288;2023-02-26T05:25:55;102632.72;;;6.53;68.80
42587;BME280;28216;53.362;-6.288;2023-02-26T05:28:21;102629.28;;;6.52;68.82
42587;BME280;28216;53.362;-6.288;2023-02-26T05:30:46;102634.66;;;6.49;68.68
42587;BME280;28216;53.362;-6.288;2023-02-26T05:33:12;102626.75;;;6.51;68.20
42587;BME280;28216;53.362;-6.288;2023-02-26T05:35:37;102635.00;;;6.43;68.40
42587;BME280;28216;53.362;-6.288;2023-02-26T05:38:03;102636.53;;;6.47;68.23
42587;BME280;28216;53.362;-6.288;2023-02-26T05:40:29;102636.53;;;6.47;68.16
42587;BME280;28216;53.362;-6.288;2023-02-26T05:42:54;102631.13;;;6.50;67.25
42587;BME280;28216;53.362;-6.288;2023-02-26T05:45:20;102640.63;;;6.51;67.46
42587;BME280;28216;53.362;-6.288;2023-02-26T05:47:45;102631.13;;;6.50;67.55
42587;BME280;28216;53.362;-6.288;2023-02-26T05:50:11;102642.47;;;6.49;67.29
42587;BME280;28216;53.362;-6.288;2023-02-26T05:52:37;102645.00;;;6.51;67.28
42587;BME280;28216;53.362;-6.288;2023-02-26T05:55:03;102646.75;;;6.50;67.51
42587;BME280;28216;53.362;-6.288;2023-02-26T05:57:28;102650.97;;;6.53;67.21
42587;BME280;28216;53.362;-6.288;2023-02-26T05:59:54;102653.66;;;6.51;67.45
42587;BME280;28216;53.362;-6.288;2023-02-26T06:02:20;102657.03;;;6.53;67.52
42587;BME280;28216;53.362;-6.288;2023-02-26T06:04:45;102663.06;;;6.54;67.35
42587;BME280;28216;53.362;-6.288;2023-02-26T06:07:11;102663.91;;;6.54;67.72
42587;BME280;28216;53.362;-6.288;2023-02-26T06:09:37;102669.78;;;6.58;67.63
42587;BME280;28216;53.362;-6.288;2023-02-26T06:12:02;102668.03;;;6.58;67.54
42587;BME280;28216;53.362;-6.288;2023-02-26T06:14:28;102662.91;;;6.57;67.44
42587;BME280;28216;53.362;-6.288;2023-02-26T06:16:54;102662.97;;;6.55;67.81
42587;BME280;28216;53.362;-6.288;2023-02-26T06:19:20;102668.28;;;6.54;67.72
42587;BME280;28216;53.362;-6.288;2023-02-26T06:21:46;102669.13;;;6.54;68.26
42587;BME280;28216;53.362;-6.288;2023-02-26T06:24:11;102664.00;;;6.53;68.34
42587;BME280;28216;53.362;-6.288;2023-02-26T06:26:37;102674.41;;;6.53;68.72
42587;BME280;28216;53.362;-6.288;2023-02-26T06:29:02;102671.72;;;6.54;68.71
42587;BME280;28216;53.362;-6.288;2023-02-26T06:31:28;102674.50;;;6.51;68.76
42587;BME280;28216;53.362;-6.288;2023-02-26T06:33:53;102677.03;;;6.53;68.70
42587;BME280;28216;53.362;-6.288;2023-02-26T06:36:19;102684.09;;;6.51;68.73
42587;BME280;28216;53.362;-6.288;2023-02-26T06:38:44;102681.31;;;6.54;68.76
42587;BME280;28216;53.362;-6.288;2023-02-26T06:41:10;102684.75;;;6.54;68.91
42587;BME280;28216;53.362;-6.288;2023-02-26T06:43:36;102689.81;;;6.57;68.72
42587;BME280;28216;53.362;-6.288;2023-02-26T06:46:01;102694.84;;;6.60;68.88
42587;BME280;28216;53.362;-6.288;2023-02-26T06:48:27;102692.31;;;6.59;69.22
42587;BME280;28216;53.362;-6.288;2023-02-26T06:50:53;102689.63;;;6.60;69.19
42587;BME280;28216;53.362;-6.288;2023-02-26T06:53:18;102695.59;;;6.62;69.36
42587;BME280;28216;53.362;-6.288;2023-02-26T06:55:45;102695.75;;;6.59;70.19
42587;BME280;28216;53.362;-6.288;2023-02-26T06:58:20;102699.28;;;6.58;70.68
42587;BME280;28216;53.362;-6.288;2023-02-26T07:00:46;102698.38;;;6.59;70.89
42587;BME280;28216;53.362;-6.288;2023-02-26T07:03:14;102707.69;;;6.63;71.04
42587;BME280;28216;53.362;-6.288;2023-02-26T07:05:40;102706.09;;;6.61;71.07
42587;BME280;28216;53.362;-6.288;2023-02-26T07:08:05;102718.38;;;6.59;70.57
42587;BME280;28216;53.362;-6.288;2023-02-26T07:10:32;102712.16;;;6.61;70.14
42587;BME280;28216;53.362;-6.288;2023-02-26T07:12:58;102726.19;;;6.59;70.20
42587;BME280;28216;53.362;-6.288;2023-02-26T07:15:23;102719.22;;;6.59;70.75
42587;BME280;28216;53.362;-6.288;2023-02-26T07:17:49;102731.41;;;6.59;70.89
42587;BME280;28216;53.362;-6.288;2023-02-26T07:20:14;102729.66;;;6.59;71.00
42587;BME280;28216;53.362;-6.288;2023-02-26T07:22:40;102739.31;;;6.57;71.00
42587;BME280;28216;53.362;-6.288;2023-02-26T07:25:15;102748.91;;;6.57;71.05
42587;BME280;28216;53.362;-6.288;2023-02-26T07:27:40;102755.97;;;6.55;71.27
42587;BME280;28216;53.362;-6.288;2023-02-26T07:30:07;102754.97;;;6.57;71.24
42587;BME280;28216;53.362;-6.288;2023-02-26T07:32:35;102771.25;;;6.61;71.12
42587;BME280;28216;53.362;-6.288;2023-02-26T07:35:12;102763.44;;;6.61;70.28
42587;BME280;28216;53.362;-6.288;2023-02-26T07:37:40;102763.53;;;6.59;70.28
42587;BME280;28216;53.362;-6.288;2023-02-26T07:40:06;102765.97;;;6.62;70.43
42587;BME280;28216;53.362;-6.288;2023-02-26T07:42:32;102755.63;;;6.61;70.82
42587;BME280;28216;53.362;-6.288;2023-02-26T07:44:57;102770.34;;;6.62;70.67
42587;BME280;28216;53.362;-6.288;2023-02-26T07:47:24;102776.38;;;6.62;71.53
42587;BME280;28216;53.362;-6.288;2023-02-26T07:49:49;102781.59;;;6.62;72.01
42587;BME280;28216;53.362;-6.288;2023-02-26T07:52:15;102788.50;;;6.63;72.59
42587;BME280;28216;53.362;-6.288;2023-02-26T07:54:50;102788.59;;;6.62;73.59
42587;BME280;28216;53.362;-6.288;2023-02-26T08:03:31;102790.25;;;6.63;75.28
42587;BME280;28216;53.362;-6.288;2023-02-26T08:06:05;102794.88;;;6.58;75.53
42587;BME280;28216;53.362;-6.288;2023-02-26T08:08:34;102792.97;;;6.61;75.40
42587;BME280;28216;53.362;-6.288;2023-02-26T08:11:00;102800.78;;;6.61;75.48
42587;BME280;28216;53.362;-6.288;2023-02-26T08:13:26;102796.31;;;6.63;75.03
42587;BME280;28216;53.362;-6.288;2023-02-26T08:15:52;102808.88;;;6.73;74.46
42587;BME280;28216;53.362;-6.288;2023-02-26T08:18:20;102814.84;;;6.75;74.23
42587;BME280;28216;53.362;-6.288;2023-02-26T08:20:46;102825.63;;;6.84;74.06
42587;BME280;28216;53.362;-6.288;2023-02-26T08:23:11;102836.47;;;6.92;73.87
42587;BME280;28216;53.362;-6.288;2023-02-26T08:25:37;102834.34;;;6.99;73.59
42587;BME280;28216;53.362;-6.288;2023-02-26T08:28:03;102829.13;;;6.99;73.63
42587;BME280;28216;53.362;-6.288;2023-02-26T08:30:29;102836.13;;;6.98;74.08
42587;BME280;28216;53.362;-6.288;2023-02-26T08:32:54;102838.97;;;6.94;74.43
42587;BME280;28216;53.362;-6.288;2023-02-26T08:35:20;102837.31;;;6.93;74.82
42587;BME280;28216;53.362;-6.288;2023-02-26T08:37:45;102831.50;;;6.88;75.52
42587;BME280;28216;53.362;-6.288;2023-02-26T08:40:11;102841.00;;;6.89;75.92
42587;BME280;28216;53.362;-6.288;2023-02-26T08:42:37;102845.47;;;6.87;75.70
42587;BME280;28216;53.362;-6.288;2023-02-26T08:45:03;102858.66;;;6.84;76.21
42587;BME280;28216;53.362;-6.288;2023-02-26T08:47:28;102853.53;;;6.82;76.11
42587;BME280;28216;53.362;-6.288;2023-02-26T08:49:54;102855.31;;;6.82;75.90
42587;BME280;28216;53.362;-6.288;2023-02-26T08:52:20;102859.44;;;6.86;75.59
42587;BME280;28216;53.362;-6.288;2023-02-26T08:54:45;102865.22;;;6.91;75.55
42587;BME280;28216;53.362;-6.288;2023-02-26T08:57:11;102864.13;;;6.95;75.63
42587;BME280;28216;53.362;-6.288;2023-02-26T08:59:39;102870.03;;;6.98;75.56
42587;BME280;28216;53.362;-6.288;2023-02-26T09:02:10;102861.19;;;7.01;75.47
42587;BME280;28216;53.362;-6.288;2023-02-26T09:04:35;102859.41;;;7.01;75.28
42587;BME280;28216;53.362;-6.288;2023-02-26T09:07:01;102856.72;;;7.03;75.49
42587;BME280;28216;53.362;-6.288;2023-02-26T09:09:32;102862.63;;;7.07;75.25
42587;BME280;28216;53.362;-6.288;2023-02-26T09:15:04;102879.88;;;7.09;76.30
42587;BME280;28216;53.362;-6.288;2023-02-26T09:17:33;102878.09;;;7.10;76.64
42587;BME280;28216;53.362;-6.288;2023-02-26T09:19:59;102882.22;;;7.14;77.39
42587;BME280;28216;53.362;-6.288;2023-02-26T09:22:25;102869.94;;;7.16;78.36
42587;BME280;28216;53.362;-6.288;2023-02-26T09:24:50;102874.38;;;7.14;78.90
42587;BME280;28216;53.362;-6.288;2023-02-26T09:27:21;102870.94;;;7.13;79.05
42587;BME280;28216;53.362;-6.288;2023-02-26T09:29:56;102876.75;;;7.18;77.65
42587;BME280;28216;53.362;-6.288;2023-02-26T09:32:21;102881.53;;;7.26;76.80
42587;BME280;28216;53.362;-6.288;2023-02-26T09:34:47;102898.63;;;7.31;76.33
42587;BME280;28216;53.362;-6.288;2023-02-26T09:37:13;102903.00;;;7.31;75.78
42587;BME280;28216;53.362;-6.288;2023-02-26T09:39:38;102906.94;;;7.38;75.05
42587;BME280;28216;53.362;-6.288;2023-02-26T09:45:02;102910.53;;;7.67;73.48
42587;BME280;28216;53.362;-6.288;2023-02-26T09:47:33;102907.31;;;7.78;72.72
42587;BME280;28216;53.362;-6.288;2023-02-26T09:50:12;102917.22;;;7.87;72.12
42587;BME280;28216;53.362;-6.288;2023-02-26T09:57:53;102930.50;;;7.68;72.40
42587;BME280;28216;53.362;-6.288;2023-02-26T10:03:12;102928.72;;;7.69;73.52
42587;BME280;28216;53.362;-6.288;2023-02-26T10:06:08;102936.56;;;7.69;74.78
42587;BME280;28216;53.362;-6.288;2023-02-26T10:12:24;102947.22;;;7.80;74.40
42587;BME280;28216;53.362;-6.288;2023-02-26T10:17:37;102956.31;;;7.88;74.09
42587;BME280;28216;53.362;-6.288;2023-02-26T10:20:23;102963.13;;;7.91;73.75
42587;BME280;28216;53.362;-6.288;2023-02-26T10:23:20;102959.50;;;7.93;74.13
42587;BME280;28216;53.362;-6.288;2023-02-26T10:26:09;102984.13;;;7.89;74.15
42587;BME280;28216;53.362;-6.288;2023-02-26T10:31:58;102975.00;;;7.96;74.42
42587;BME280;28216;53.362;-6.288;2023-02-26T10:34:35;102981.06;;;7.97;74.96
42587;BME280;28216;53.362;-6.288;2023-02-26T10:40:13;102973.78;;;8.18;73.06
42587;BME280;28216;53.362;-6.288;2023-02-26T10:42:54;102979.97;;;8.31;73.30
42587;BME280;28216;53.362;-6.288;2023-02-26T10:45:36;102987.47;;;8.37;72.50
42587;BME280;28216;53.362;-6.288;2023-02-26T10:51:20;102980.88;;;8.88;69.51
42587;BME280;28216;53.362;-6.288;2023-02-26T10:53:54;102973.63;;;9.08;68.13
42587;BME280;28216;53.362;-6.288;2023-02-26T10:56:27;102967.72;;;9.18;67.69
42587;BME280;28216;53.362;-6.288;2023-02-26T10:58:59;102973.66;;;9.35;66.26
42587;BME280;28216;53.362;-6.288;2023-02-26T11:01:27;102984.13;;;9.35;65.58
42587;BME280;28216;53.362;-6.288;2023-02-26T11:03:56;102980.94;;;9.44;65.09
42587;BME280;28216;53.362;-6.288;2023-02-26T11:06:29;102987.47;;;9.78;64.59
42587;BME280;28216;53.362;-6.288;2023-02-26T11:09:41;102987.47;;;9.78;63.84
42587;BME280;28216;53.362;-6.288;2023-02-26T11:12:15;102997.22;;;9.35;65.20
42587;BME280;28216;53.362;-6.288;2023-02-26T11:14:47;102998.97;;;9.48;65.70
42587;BME280;28216;53.362;-6.288;2023-02-26T11:17:21;102994.75;;;9.46;65.92
42587;BME280;28216;53.362;-6.288;2023-02-26T11:20:04;103007.72;;;9.06;67.12
42587;BME280;28216;53.362;-6.288;2023-02-26T11:22:52;102998.00;;;9.22;66.79
42587;BME280;28216;53.362;-6.288;2023-02-26T11:25:24;102994.81;;;9.17;66.28
42587;BME280;28216;53.362;-6.288;2023-02-26T11:27:59;102999.41;;;9.00;66.43
42587;BME280;28216;53.362;-6.288;2023-02-26T11:30:33;103000.22;;;8.86;66.40
42587;BME280;28216;53.362;-6.288;2023-02-26T11:33:21;103004.44;;;8.88;65.87
42587;BME280;28216;53.362;-6.288;2023-02-26T11:35:58;103002.66;;;8.89;63.99
42587;BME280;28216;53.362;-6.288;2023-02-26T11:38:25;103018.81;;;8.67;65.27
42587;BME280;28216;53.362;-6.288;2023-02-26T11:40:56;103011.41;;;8.59;66.80
42587;BME280;28216;53.362;-6.288;2023-02-26T11:43:24;103017.94;;;8.52;67.95
42587;BME280;28216;53.362;-6.288;2023-02-26T11:45:59;103008.16;;;8.56;68.07
42587;BME280;28216;53.362;-6.288;2023-02-26T11:48:48;103003.16;;;8.37;69.53
42587;BME280;28216;53.362;-6.288;2023-02-26T11:51:18;102998.25;;;8.31;70.94
42587;BME280;28216;53.362;-6.288;2023-02-26T11:53:56;103001.47;;;8.36;71.12
42587;BME280;28216;53.362;-6.288;2023-02-26T11:56:30;103007.41;;;8.54;70.42
42587;BME280;28216;53.362;-6.288;2023-02-26T11:59:15;103006.28;;;8.58;69.73
42587;BME280;28216;53.362;-6.288;2023-02-26T12:01:44;103002.94;;;8.70;68.60
42587;BME280;28216;53.362;-6.288;2023-02-26T12:04:18;103004.00;;;8.96;67.84
42587;BME280;28216;53.362;-6.288;2023-02-26T12:06:49;102999.22;;;9.17;67.91
42587;BME280;28216;53.362;-6.288;2023-02-26T12:09:18;102994.63;;;9.20;67.28
42587;BME280;28216;53.362;-6.288;2023-02-26T12:17:20;103001.41;;;9.37;66.98
42587;BME280;28216;53.362;-6.288;2023-02-26T12:26:02;103005.84;;;9.08;68.49
42587;BME280;28216;53.362;-6.288;2023-02-26T12:43:09;102999.25;;;8.44;70.12
42587;BME280;28216;53.362;-6.288;2023-02-26T13:02:05;102988.63;;;9.33;66.32
42587;BME280;28216;53.362;-6.288;2023-02-26T13:04:48;102986.34;;;9.41;67.06
42587;BME280;28216;53.362;-6.288;2023-02-26T13:18:45;103001.88;;;9.85;65.03
42587;BME280;28216;53.362;-6.288;2023-02-26T13:21:32;102995.69;;;9.86;65.14
42587;BME280;28216;53.362;-6.288;2023-02-26T13:24:21;102999.31;;;9.56;67.17
42587;BME280;28216;53.362;-6.288;2023-02-26T13:26:49;102995.75;;;9.57;66.97
42587;BME280;28216;53.362;-6.288;2023-02-26T13:29:32;103007.56;;;9.50;66.59
42587;BME280;28216;53.362;-6.288;2023-02-26T13:32:18;102986.66;;;9.63;65.70
42587;BME280;28216;53.362;-6.288;2023-02-26T13:34:47;102991.25;;;9.60;66.43
42587;BME280;28216;53.362;-6.288;2023-02-26T13:37:40;102981.81;;;9.30;67.52
42587;BME280;28216;53.362;-6.288;2023-02-26T13:42:52;102990.06;;;9.51;66.68
42587;BME280;28216;53.362;-6.288;2023-02-26T13:45:22;102999.25;;;9.44;67.15
42587;BME280;28216;53.362;-6.288;2023-02-26T13:56:20;102995.94;;;9.13;69.18
42587;BME280;28216;53.362;-6.288;2023-02-26T13:58:52;103000.91;;;9.04;70.02
42587;BME280;28216;53.362;-6.288;2023-02-26T14:01:50;103003.97;;;8.82;70.78
42587;BME280;28216;53.362;-6.288;2023-02-26T14:09:42;103006.94;;;8.62;72.11
42587;BME280;28216;53.362;-6.288;2023-02-26T14:14:42;103014.63;;;8.79;71.83
42587;BME280;28216;53.362;-6.288;2023-02-26T14:25:00;103010.31;;;8.78;71.26
42587;BME280;28216;53.362;-6.288;2023-02-26T14:27:37;103013.69;;;8.80;70.65
42587;BME280;28216;53.362;-6.288;2023-02-26T14:30:15;103010.13;;;8.81;70.51
42587;BME280;28216;53.362;-6.288;2023-02-26T14:32:47;103008.25;;;8.83;70.25
42587;BME280;28216;53.362;-6.288;2023-02-26T14:40:43;103015.75;;;9.17;68.14
42587;BME280;28216;53.362;-6.288;2023-02-26T14:45:53;103012.50;;;9.00;68.28
42587;BME280;28216;53.362;-6.288;2023-02-26T14:48:24;103013.81;;;9.07;66.30
42587;BME280;28216;53.362;-6.288;2023-02-26T14:56:56;103006.00;;;8.63;68.20
42587;BME280;28216;53.362;-6.288;2023-02-26T15:00:06;103012.41;;;8.43;67.56
42587;BME280;28216;53.362;-6.288;2023-02-26T15:05:23;103013.34;;;8.42;65.51
42587;BME280;28216;53.362;-6.288;2023-02-26T15:19:12;103015.31;;;8.38;65.22
42587;BME280;28216;53.362;-6.288;2023-02-26T15:24:25;103010.38;;;8.18;66.12
42587;BME280;28216;53.362;-6.288;2023-02-26T15:27:00;103016.75;;;8.28;65.99
42587;BME280;28216;53.362;-6.288;2023-02-26T15:29:34;103006.53;;;8.39;66.57
42587;BME280;28216;53.362;-6.288;2023-02-26T15:32:29;103006.28;;;8.28;66.93
42587;BME280;28216;53.362;-6.288;2023-02-26T15:37:38;103016.25;;;8.51;65.87
42587;BME280;28216;53.362;-6.288;2023-02-26T15:40:05;103008.50;;;8.50;66.02
42587;BME280;28216;53.362;-6.288;2023-02-26T15:42:34;103011.78;;;8.53;66.22
42587;BME280;28216;53.362;-6.288;2023-02-26T15:45:04;103008.81;;;8.59;66.00
42587;BME280;28216;53.362;-6.288;2023-02-26T15:47:31;103014.59;;;8.65;66.11
42587;BME280;28216;53.362;-6.288;2023-02-26T15:49:57;103009.56;;;8.62;65.40
42587;BME280;28216;53.362;-6.288;2023-02-26T15:52:28;103012.16;;;8.47;67.05
42587;BME280;28216;53.362;-6.288;2023-02-26T15:54:59;103018.59;;;8.56;68.34
42587;BME280;28216;53.362;-6.288;2023-02-26T15:57:30;103017.00;;;8.53;68.96
42587;BME280;28216;53.362;-6.288;2023-02-26T16:00:20;103021.69;;;8.48;69.40
42587;BME280;28216;53.362;-6.288;2023-02-26T16:02:53;103014.00;;;8.45;68.55
42587;BME280;28216;53.362;-6.288;2023-02-26T16:05:22;103015.50;;;8.49;68.13
42587;BME280;28216;53.362;-6.288;2023-02-26T16:07:48;103023.63;;;8.45;67.50
42587;BME280;28216;53.362;-6.288;2023-02-26T16:10:33;103024.41;;;8.31;67.13
42587;BME280;28216;53.362;-6.288;2023-02-26T16:13:03;103030.16;;;8.22;67.06
42587;BME280;28216;53.362;-6.288;2023-02-26T16:15:36;103020.47;;;8.08;67.78
42587;BME280;28216;53.362;-6.288;2023-02-26T16:18:10;103031.09;;;8.05;68.52
42587;BME280;28216;53.362;-6.288;2023-02-26T16:20:43;103026.72;;;8.06;68.58
42587;BME280;28216;53.362;-6.288;2023-02-26T16:23:19;103030.44;;;8.02;69.19
42587;BME280;28216;53.362;-6.288;2023-02-26T16:25:51;103023.66;;;8.13;69.15